Time;durP1;ratioP1;P1;durP2;ratioP2;P2;SDS_P1;SDS_P2;PMS_P1;PMS_P2;Temp;Humidity;BMP_temperature;BMP_pressure;BME280_temperature;BME280_humidity;BME280_pressure;Samples;Min_cycle;Max_cycle;Signal;HPM_P1;HPM_P2
2022/10/14 00:01:16;;;;;;;29.20;14.78;;;;;;;4.54;100.00;101527.63;1602297;89;21067;-73
2022/10/14 00:03:43;;;;;;;26.90;15.18;;;;;;;4.57;100.00;101525.93;1585336;89;21108;-73
2022/10/14 00:06:20;;;;;;;30.90;15.60;;;;;;;4.60;100.00;101531.03;1577553;91;21102;-73
2022/10/14 00:08:47;;;;;;;30.55;15.65;;;;;;;4.65;100.00;101530.17;1577512;91;21088;-73
2022/10/14 00:11:25;;;;;;;26.77;14.45;;;;;;;4.67;100.00;101534.84;1577465;91;21061;-73
2022/10/14 00:13:59;;;;;;;28.47;15.32;;;;;;;4.67;100.00;101533.56;1577298;91;21561;-73
2022/10/14 00:16:30;;;;;;;;;;;;;;;4.77;100.00;101533.95;1579803;91;21101;-73
2022/10/14 00:18:59;;;;;;;28.67;15.95;;;;;;;4.80;100.00;101533.49;1577344;91;20144;-73
2022/10/14 00:21:28;;;;;;;29.80;16.48;;;;;;;4.80;100.00;101541.14;1577492;91;21573;-73
2022/10/14 00:23:56;;;;;;;31.93;17.07;;;;;;;4.83;100.00;101540.31;1577259;89;21081;-73
2022/10/14 00:26:27;;;;;;;29.85;17.95;;;;;;;4.82;100.00;101536.05;1577454;91;21069;-73
2022/10/14 00:28:56;;;;;;;34.20;17.62;;;;;;;4.84;100.00;101534.77;1577440;89;21092;-73
2022/10/14 00:31:26;;;;;;;34.23;17.30;;;;;;;4.88;100.00;101536.02;1577294;91;21148;-73
2022/10/14 00:33:53;;;;;;;30.57;16.90;;;;;;;4.90;100.00;101535.59;1577373;91;21164;-73
2022/10/14 00:36:23;;;;;;;31.15;15.83;;;;;;;4.95;100.00;101535.59;1577614;91;21080;-73
2022/10/14 00:38:52;;;;;;;30.77;15.58;;;;;;;4.95;100.00;101531.77;1577279;91;21108;-73
2022/10/14 00:41:24;;;;;;;27.48;15.38;;;;;;;5.02;100.00;101530.86;1577407;91;21104;-73
2022/10/14 00:44:05;;;;;;;27.32;15.18;;;;;;;5.02;100.00;101534.69;1577365;91;21068;-73
2022/10/14 00:46:35;;;;;;;28.60;15.58;;;;;;;5.06;100.00;101528.72;1577515;91;21141;-74
2022/10/14 00:49:12;;;;;;;29.27;15.15;;;;;;;5.06;100.00;101525.33;1577574;91;21072;-73
2022/10/14 00:51:48;;;;;;;29.02;14.65;;;;;;;5.08;100.00;101520.63;1577089;91;21072;-73
2022/10/14 00:54:17;;;;;;;28.73;14.33;;;;;;;5.10;100.00;101521.91;1577568;91;21057;-74
2022/10/14 00:56:47;;;;;;;26.85;14.68;;;;;;;5.11;100.00;101519.75;1577360;91;21121;-74
2022/10/14 00:59:15;;;;;;;23.65;13.35;;;;;;;5.12;100.00;101519.75;1577499;91;21549;-73
2022/10/14 01:01:43;;;;;;;26.27;14.38;;;;;;;5.13;100.00;101518.91;1577551;90;21664;-74
2022/10/14 01:04:11;;;;;;;26.02;14.18;;;;;;;5.17;100.00;101523.55;1577323;91;21085;-73
2022/10/14 01:06:56;;;;;;;27.07;14.03;;;;;;;5.21;100.00;101520.12;1577433;90;21073;-74
2022/10/14 01:09:31;;;;;;;26.70;14.03;;;;;;;5.24;100.00;101520.12;1577281;90;21120;-73
2022/10/14 01:12:08;;;;;;;21.20;13.22;;;;;;;5.28;100.00;101514.14;1577448;91;21096;-74
2022/10/14 01:15:06;;;;;;;22.13;12.75;;;;;;;5.29;100.00;101520.95;1577491;91;21081;-74
2022/10/14 01:17:57;;;;;;;23.52;12.63;;;;;;;5.30;100.00;101521.36;1577542;89;21573;-74
2022/10/14 01:21:12;;;;;;;22.95;12.98;;;;;;;5.30;100.00;101521.80;1577571;89;21616;-74
2022/10/14 01:24:06;;;;;;;22.80;12.93;;;;;;;5.31;100.00;101523.47;1577623;89;21088;-73
2022/10/14 01:27:03;;;;;;;;;;;;;;;5.40;100.00;101524.27;1579568;89;21108;-74
2022/10/14 01:30:05;;;;;;;25.93;14.33;;;;;;;5.49;100.00;101527.19;1577560;91;20121;-73
2022/10/14 01:32:50;;;;;;;28.15;14.55;;;;;;;5.57;100.00;101531.81;1577382;90;21637;-73
2022/10/14 01:35:40;;;;;;;25.02;14.05;;;;;;;5.59;100.00;101528.81;1577548;91;21600;-74
2022/10/14 01:38:32;;;;;;;26.15;13.28;;;;;;;5.61;100.00;101521.98;1569242;90;21650;-73
2022/10/14 01:41:19;;;;;;;26.00;13.50;;;;;;;5.62;100.00;101526.70;1577562;91;21564;-74
2022/10/14 01:43:51;;;;;;;22.73;13.15;;;;;;;5.59;100.00;101526.27;1577470;90;21120;-74
2022/10/14 01:46:21;;;;;;;26.48;14.25;;;;;;;5.59;100.00;101523.70;1577242;90;21184;-74
2022/10/14 01:48:59;;;;;;;25.52;15.23;;;;;;;5.66;100.00;101532.60;1556149;91;21104;-74
2022/10/14 01:51:46;;;;;;;25.37;14.40;;;;;;;5.66;100.00;101529.64;1577432;89;21088;-74
2022/10/14 01:54:33;;;;;;;24.57;14.35;;;;;;;5.64;100.00;101531.36;1577255;91;21053;-74
2022/10/14 01:57:05;;;;;;;26.17;13.83;;;;;;;5.58;100.00;101522.03;1577561;91;21116;-74
2022/10/14 01:59:35;;;;;;;22.40;13.50;;;;;;;5.65;100.00;101519.43;1577461;91;21037;-74
2022/10/14 02:02:02;;;;;;;23.85;13.62;;;;;;;5.61;100.00;101529.66;1577489;89;21109;-74
2022/10/14 02:04:29;;;;;;;23.87;13.65;;;;;;;5.58;100.00;101519.91;1577340;89;21096;-74
2022/10/14 02:07:17;;;;;;;25.17;13.98;;;;;;;5.56;100.00;101526.73;1577215;89;21124;-74
2022/10/14 02:10:26;;;;;;;24.75;14.50;;;;;;;5.50;100.00;101521.23;1577412;91;21045;-74
2022/10/14 02:13:11;;;;;;;27.73;14.23;;;;;;;5.49;100.00;101520.80;1577431;91;21136;-73
2022/10/14 02:16:03;;;;;;;25.17;15.13;;;;;;;5.56;100.00;101521.63;1577449;91;21073;-74
2022/10/14 02:18:50;;;;;;;23.10;14.23;;;;;;;5.66;100.00;101511.77;1577449;91;21137;-74
2022/10/14 02:21:41;;;;;;;28.45;14.80;;;;;;;5.69;100.00;101515.55;1577415;91;21073;-74
2022/10/14 02:24:21;;;;;;;24.47;13.45;;;;;;;5.70;100.00;101521.53;1577451;91;21116;-74
2022/10/14 02:26:52;;;;;;;24.85;14.85;;;;;;;5.65;100.00;101518.99;1577589;91;21089;-74
2022/10/14 02:29:21;;;;;;;26.60;14.35;;;;;;;5.62;100.00;101526.70;1577452;91;21160;-74
2022/10/14 02:31:50;;;;;;;28.45;14.90;;;;;;;5.61;100.00;101521.98;1577530;91;21049;-74
2022/10/14 02:34:20;;;;;;;25.77;14.40;;;;;;;5.58;100.00;101518.20;1577608;91;21109;-74
2022/10/14 02:36:49;;;;;;;25.27;14.70;;;;;;;5.59;100.00;101516.48;1577448;91;21701;-74
2022/10/14 02:39:24;;;;;;;23.75;14.80;;;;;;;5.57;100.00;101515.64;1577590;91;21525;-74
2022/10/14 02:41:51;;;;;;;27.90;14.98;;;;;;;5.56;100.00;101516.08;1577447;90;21584;-74
2022/10/14 02:44:18;;;;;;;27.58;15.10;;;;;;;5.52;100.00;101511.86;1577643;91;21045;-74
2022/10/14 02:46:46;;;;;;;29.20;15.28;;;;;;;5.54;100.00;101516.52;1577431;89;21596;-74
2022/10/14 02:49:13;;;;;;;25.80;15.78;;;;;;;5.57;100.00;101514.38;1552627;89;21088;-74
2022/10/14 02:51:40;;;;;;;26.55;15.13;;;;;;;5.60;100.00;101513.09;1577343;91;21124;-74
2022/10/14 02:54:09;;;;;;;29.15;16.05;;;;;;;5.61;100.00;101516.88;1577222;91;21077;-74
2022/10/14 02:56:36;;;;;;;26.90;15.80;;;;;;;5.61;100.00;101521.98;1577532;89;21097;-74
2022/10/14 02:59:03;;;;;;;26.15;15.30;;;;;;;5.66;100.00;101521.11;1577374;90;21116;-74
2022/10/14 03:01:31;;;;;;;27.00;16.32;;;;;;;5.64;100.00;101518.59;1577604;89;21443;-74
2022/10/14 03:03:59;;;;;;;27.42;16.05;;;;;;;5.67;100.00;101512.16;1577511;91;21152;-74
2022/10/14 03:06:27;;;;;;;28.65;16.90;;;;;;;5.69;100.00;101521.94;1577270;91;21108;-74
2022/10/14 03:08:57;;;;;;;26.25;15.75;;;;;;;5.69;100.00;101519.83;1577304;91;21124;-74
2022/10/14 03:11:24;;;;;;;27.87;16.27;;;;;;;5.75;100.00;101516.78;1577610;91;21104;-74
2022/10/14 03:13:51;;;;;;;25.40;16.15;;;;;;;5.81;100.00;101509.50;1577577;91;21117;-74
2022/10/14 03:16:21;;;;;;;25.70;16.45;;;;;;;5.83;100.00;101506.50;1577345;91;21143;-74
2022/10/14 03:18:48;;;;;;;27.42;16.15;;;;;;;5.90;100.00;101510.72;1577632;91;21116;-74
2022/10/14 03:21:17;;;;;;;30.35;15.93;;;;;;;5.96;100.00;101508.14;1577159;91;21088;-74
2022/10/14 03:23:44;;;;;;;27.93;16.15;;;;;;;6.05;100.00;101507.64;1577570;91;21096;-74
2022/10/14 03:26:11;;;;;;;25.50;15.55;;;;;;;6.07;100.00;101509.31;1577698;91;21612;-74
2022/10/14 03:28:40;;;;;;;26.60;15.90;;;;;;;6.09;100.00;101505.03;1577522;91;21081;-74
2022/10/14 03:31:09;;;;;;;25.20;15.10;;;;;;;6.19;100.00;101509.19;1577439;89;21120;-74
2022/10/14 03:33:41;;;;;;;28.52;16.17;;;;;;;6.23;100.00;101504.06;1577370;91;21107;-74
2022/10/14 03:36:11;;;;;;;27.32;15.28;;;;;;;6.21;100.00;101504.07;1577497;91;21588;-74
2022/10/14 03:38:42;;;;;;;29.10;15.48;;;;;;;6.25;100.00;101502.34;1577470;91;21419;-74
2022/10/14 03:41:11;;;;;;;23.73;14.83;;;;;;;6.27;100.00;101506.56;1577136;89;21113;-74
2022/10/14 03:43:38;;;;;;;26.55;15.35;;;;;;;6.25;100.00;101513.84;1577309;91;21077;-75
2022/10/14 03:46:08;;;;;;;30.27;15.68;;;;;;;6.22;100.00;101515.98;1577315;91;21120;-74
2022/10/14 03:48:36;;;;;;;26.05;15.40;;;;;;;6.19;100.00;101509.19;1577499;91;21072;-74
2022/10/14 03:51:03;;;;;;;28.42;16.00;;;;;;;6.24;100.00;101510.41;1577620;91;21030;-74
2022/10/14 03:53:31;;;;;;;30.05;15.50;;;;;;;6.23;100.00;101514.29;1572084;90;21099;-74
2022/10/14 03:55:59;;;;;;;26.27;15.20;;;;;;;6.21;100.00;101513.02;1574014;91;21133;-74
2022/10/14 03:58:26;;;;;;;26.82;15.30;;;;;;;6.24;100.00;101518.53;1577240;89;21173;-74
2022/10/14 04:00:55;;;;;;;25.05;14.73;;;;;;;6.29;100.00;101514.23;1577446;91;21140;-74
2022/10/14 04:03:27;;;;;;;26.35;15.23;;;;;;;6.28;100.00;101516.36;1577568;91;21069;-74
2022/10/14 04:05:56;;;;;;;23.98;15.00;;;;;;;6.36;100.00;101514.56;1577544;91;21148;-74
2022/10/14 04:08:25;;;;;;;24.47;15.28;;;;;;;6.42;100.00;101516.62;1577395;91;21088;-74
2022/10/14 04:10:57;;;;;;;25.32;14.25;;;;;;;6.48;100.00;101513.59;1577420;91;21640;-74
2022/10/14 04:13:24;;;;;;;23.38;13.70;;;;;;;6.49;100.00;101508.88;1577470;91;21053;-74
2022/10/14 04:15:52;;;;;;;26.35;14.87;;;;;;;6.50;100.00;101516.54;1577571;91;21075;-74
2022/10/14 04:18:20;;;;;;;22.93;14.65;;;;;;;6.54;100.00;101520.76;1577526;91;21137;-74
2022/10/14 04:20:48;;;;;;;24.92;15.10;;;;;;;6.48;100.00;101514.87;1577246;91;21109;-74
2022/10/14 04:23:15;;;;;;;25.17;15.08;;;;;;;6.57;100.00;101510.50;1577554;91;21120;-74
2022/10/14 04:25:44;;;;;;;23.38;14.35;;;;;;;6.65;100.00;101510.42;1577524;91;21112;-74
2022/10/14 04:28:11;;;;;;;25.88;14.93;;;;;;;6.71;100.00;101503.08;1577642;91;21525;-74
2022/10/14 04:30:41;;;;;;;22.30;14.25;;;;;;;6.74;100.00;101502.62;1577353;89;21637;-74
2022/10/14 04:33:09;;;;;;;25.20;15.08;;;;;;;6.78;100.00;101503.44;1577519;89;21081;-74
2022/10/14 04:35:36;;;;;;;25.17;15.00;;;;;;;6.83;100.00;101514.45;1577482;89;21033;-74
2022/10/14 04:38:07;;;;;;;26.00;14.00;;;;;;;6.88;100.00;101512.69;1577581;91;21085;-74
2022/10/14 04:40:36;;;;;;;28.73;15.00;;;;;;;6.94;100.00;101517.73;1577289;91;21124;-73
2022/10/14 04:43:04;;;;;;;26.30;14.85;;;;;;;7.00;100.00;101524.49;1579918;90;21147;-73
2022/10/14 04:45:32;;;;;;;25.72;14.28;;;;;;;6.94;100.00;101529.69;1577561;90;21128;-73
2022/10/14 04:48:02;;;;;;;29.12;14.60;;;;;;;6.86;100.00;101519.98;1577301;91;21089;-74
2022/10/14 04:50:29;;;;;;;27.50;14.85;;;;;;;6.87;100.00;101522.50;1577174;91;21089;-73
2022/10/14 04:53:15;;;;;;;28.55;15.10;;;;;;;6.95;100.00;101522.41;1577109;89;21065;-74
2022/10/14 04:55:48;;;;;;;25.45;14.93;;;;;;;7.07;100.00;101518.84;1577588;89;21083;-74
2022/10/14 04:58:16;;;;;;;23.27;14.30;;;;;;;7.12;100.00;101522.21;1572381;91;21137;-73
2022/10/14 05:00:43;;;;;;;24.63;15.18;;;;;;;7.09;100.00;101524.80;1576269;89;21572;-73
2022/10/14 05:03:24;;;;;;;25.05;14.03;;;;;;;7.11;100.00;101532.86;1577241;89;21589;-74
2022/10/14 05:05:51;;;;;;;22.20;13.80;;;;;;;7.11;100.00;101535.87;1577671;91;21057;-73
2022/10/14 05:08:19;;;;;;;24.18;14.28;;;;;;;7.13;100.00;101536.69;1577338;89;21092;-74
2022/10/14 05:10:50;;;;;;;27.70;14.55;;;;;;;7.16;100.00;101539.23;1577553;89;21073;-73
2022/10/14 05:13:20;;;;;;;21.23;13.80;;;;;;;7.25;100.00;101540.37;1577142;89;21073;-74
2022/10/14 05:15:49;;;;;;;22.15;14.25;;;;;;;7.32;100.00;101541.98;1573889;91;21177;-73
2022/10/14 05:18:17;;;;;;;26.93;14.47;;;;;;;7.38;100.00;101541.03;1577251;91;21096;-74
2022/10/14 05:20:46;;;;;;;27.25;14.85;;;;;;;7.46;100.00;101538.37;1557517;91;21168;-74
2022/10/14 05:23:13;;;;;;;27.42;14.85;;;;;;;7.55;100.00;101546.77;1577126;91;21139;-74
2022/10/14 05:25:41;;;;;;;23.15;14.18;;;;;;;7.58;100.00;101552.27;1577430;89;21112;-74
2022/10/14 05:28:08;;;;;;;26.60;14.28;;;;;;;7.61;100.00;101547.95;1577490;89;21152;-74
2022/10/14 05:30:45;;;;;;;23.35;14.78;;;;;;;7.72;100.00;101555.47;1577344;89;22209;-74
2022/10/14 05:33:13;;;;;;;26.23;15.25;;;;;;;7.82;100.00;101555.73;1577473;89;21100;-74
2022/10/14 05:35:42;;;;;;;25.17;14.63;;;;;;;7.93;100.00;101556.03;1577393;90;21045;-74
2022/10/14 05:38:11;;;;;;;25.15;14.90;;;;;;;7.91;100.00;101566.30;1577383;89;21126;-74
2022/10/14 05:40:39;;;;;;;25.00;15.55;;;;;;;7.87;100.00;101564.66;1577489;91;22233;-74
2022/10/14 05:43:07;;;;;;;26.10;15.05;;;;;;;7.92;100.00;101562.85;1577454;89;21089;-75
2022/10/14 05:45:36;;;;;;;23.35;15.43;;;;;;;8.03;100.00;101565.27;1577202;91;21121;-75
2022/10/14 05:48:04;;;;;;;27.22;15.95;;;;;;;8.11;100.00;101568.55;1577489;91;21621;-74
2022/10/14 05:50:32;;;;;;;24.05;15.38;;;;;;;8.21;100.00;101566.23;1577266;91;21529;-74
2022/10/14 05:53:01;;;;;;;25.20;15.28;;;;;;;8.16;100.00;101578.27;1577384;91;21721;-74
2022/10/14 05:55:31;;;;;;;29.95;16.93;;;;;;;8.18;100.00;101581.66;1577389;91;21085;-75
2022/10/14 05:58:00;;;;;;;27.75;16.55;;;;;;;8.28;100.00;101578.95;1577264;89;21172;-74
2022/10/14 06:00:29;;;;;;;23.40;14.78;;;;;;;8.41;100.00;101571.05;1577215;91;21108;-74
2022/10/14 06:02:58;;;;;;;26.62;16.23;;;;;;;8.52;100.00;101579.83;1577144;90;21053;-75
2022/10/14 06:05:25;;;;;;;27.35;14.90;;;;;;;8.68;100.00;101574.39;1577567;89;21100;-75
2022/10/14 06:07:52;;;;;;;25.88;15.25;;;;;;;8.79;100.00;101573.76;1577467;91;21093;-74
2022/10/14 06:10:21;;;;;;;26.65;15.45;;;;;;;8.87;100.00;101592.42;1577436;91;21585;-75
2022/10/14 06:12:49;;;;;;;25.60;15.80;;;;;;;8.99;100.00;101591.34;1577296;91;21168;-74
2022/10/14 06:15:16;;;;;;;26.00;14.55;;;;;;;9.14;100.00;101595.31;1577281;91;21097;-75
2022/10/14 06:17:44;;;;;;;24.70;13.40;;;;;;;9.17;100.00;101602.97;1577589;91;21132;-75
2022/10/14 06:20:12;;;;;;;20.27;13.65;;;;;;;9.27;100.00;101604.91;1577363;89;21096;-75
2022/10/14 06:22:40;;;;;;;22.67;13.22;;;;;;;9.32;100.00;101601.79;1577486;91;21107;-75
2022/10/14 06:25:08;;;;;;;21.05;13.13;;;;;;;9.36;100.00;101604.70;1577399;89;21077;-74
2022/10/14 06:27:36;;;;;;;24.98;13.65;;;;;;;9.44;100.00;101604.09;1577415;91;21545;-75
2022/10/14 06:30:05;;;;;;;28.47;14.13;;;;;;;9.53;100.00;101609.47;1577218;91;21621;-74
2022/10/14 06:32:32;;;;;;;28.55;15.50;;;;;;;9.64;100.00;101607.52;1577608;91;21061;-75
2022/10/14 06:34:59;;;;;;;25.27;15.18;;;;;;;9.77;100.00;101603.80;1577596;91;21116;-75
2022/10/14 06:37:27;;;;;;;24.30;15.63;;;;;;;9.91;100.00;101607.75;1577396;91;21077;-75
2022/10/14 06:39:53;;;;;;;28.80;15.98;;;;;;;9.95;100.00;101613.23;1577416;91;21079;-75
2022/10/14 06:42:22;;;;;;;27.98;16.20;;;;;;;9.87;100.00;101617.26;1580527;89;21059;-75
2022/10/14 06:44:50;;;;;;;31.12;16.42;;;;;;;9.90;100.00;101615.08;1575924;91;21096;-75
2022/10/14 06:47:17;;;;;;;26.40;17.17;;;;;;;9.78;100.00;101615.75;1581755;89;21104;-75
2022/10/14 06:49:44;;;;;;;28.00;17.15;;;;;;;9.93;100.00;101612.42;1582888;89;21047;-74
2022/10/14 06:52:11;;;;;;;31.27;18.48;;;;;;;10.15;100.00;101617.90;1583555;89;21128;-74
2022/10/14 06:54:40;;;;;;;36.53;18.70;;;;;;;10.25;100.00;101619.36;1584012;89;21075;-75
2022/10/14 06:57:07;;;;;;;28.25;17.00;;;;;;;10.18;100.00;101625.11;1576595;91;21077;-75
2022/10/14 06:59:34;;;;;;;28.80;17.40;;;;;;;10.21;100.00;101625.47;1584332;89;21053;-75
2022/10/14 07:02:00;;;;;;;31.12;18.62;;;;;;;10.27;100.00;101627.89;1584407;89;21095;-75
2022/10/14 07:04:27;;;;;;;28.55;16.60;;;;;;;10.45;100.00;101625.33;1576016;91;21540;-75
2022/10/14 07:06:56;;;;;;;32.40;16.70;;;;;;;10.67;100.00;101632.50;1574280;91;21077;-75
2022/10/14 07:09:23;;;;;;;28.27;16.93;;;;;;;10.83;100.00;101633.78;1577257;91;21053;-75
2022/10/14 07:11:51;;;;;;;33.30;17.40;;;;;;;10.96;100.00;101645.88;1576008;89;21485;-75
2022/10/14 07:14:18;;;;;;;42.78;22.62;;;;;;;10.98;100.00;101650.09;1584196;89;21114;-75
2022/10/14 07:16:46;;;;;;;30.72;16.67;;;;;;;11.08;100.00;101650.69;1579776;89;21062;-74
2022/10/14 07:19:13;;;;;;;28.40;16.95;;;;;;;11.17;100.00;101656.89;1575766;89;21121;-74
2022/10/14 07:21:44;;;;;;;38.67;20.30;;;;;;;11.17;100.00;101660.75;1581448;89;21081;-75
2022/10/14 07:24:11;;;;;;;43.02;23.32;;;;;;;11.16;100.00;101661.63;1581016;89;21056;-74
2022/10/14 07:26:38;;;;;;;45.48;23.05;;;;;;;11.28;100.00;101658.31;1578032;89;21153;-74
2022/10/14 07:29:05;;;;;;;37.25;19.77;;;;;;;11.40;100.00;101659.25;1580374;89;21573;-75
2022/10/14 07:31:33;;;;;;;39.25;21.68;;;;;;;11.33;100.00;101664.16;1557439;89;21106;-74
2022/10/14 07:34:00;;;;;;;46.58;25.35;;;;;;;11.23;100.00;101661.00;1580220;89;21074;-74
2022/10/14 07:36:27;;;;;;;42.98;24.07;;;;;;;11.14;100.00;101659.53;1576391;91;21094;-75
2022/10/14 07:38:54;;;;;;;42.73;22.65;;;;;;;11.30;100.00;101662.53;1576855;91;21097;-75
2022/10/14 07:41:24;;;;;;;37.95;22.05;;;;;;;11.50;100.00;101658.09;1577172;89;21045;-75
2022/10/14 07:44:01;;;;;;;38.73;20.52;;;;;;;11.68;100.00;101657.98;1575721;91;21138;-74
2022/10/14 07:46:28;;;;;;;46.37;23.20;;;;;;;11.49;100.00;101660.70;1581284;89;21140;-75
2022/10/14 07:48:58;;;;;;;36.75;19.30;;;;;;;11.46;100.00;101657.78;1578808;89;21142;-75
2022/10/14 07:51:26;;;;;;;33.25;19.40;;;;;;;11.38;100.00;101654.58;1562578;91;21102;-75
2022/10/14 07:53:57;;;;;;;32.00;17.75;;;;;;;11.45;100.00;101664.27;1575387;91;21128;-75
2022/10/14 07:56:25;;;;;;;34.65;18.90;;;;;;;11.53;100.00;101663.14;1580945;89;21007;-75
2022/10/14 07:58:53;;;;;;;36.58;19.45;;;;;;;11.73;100.00;101669.00;1574468;89;21079;-75
2022/10/14 08:01:19;;;;;;;36.40;19.82;;;;;;;11.65;100.00;101670.13;1572376;91;21062;-75
2022/10/14 08:03:47;;;;;;;36.25;19.32;;;;;;;11.78;100.00;101669.71;1572658;90;21526;-75
2022/10/14 08:06:15;;;;;;;35.78;19.57;;;;;;;12.03;100.00;101669.81;1572198;91;22345;-75
2022/10/14 08:08:43;;;;;;;37.80;20.35;;;;;;;12.20;100.00;101675.72;1572385;91;21118;-75
2022/10/14 08:11:18;;;;;;;35.80;21.20;;;;;;;12.37;100.00;101676.94;1573110;90;21660;-75
2022/10/14 08:13:46;;;;;;;37.80;19.92;;;;;;;12.40;100.00;101680.70;1578653;89;21007;-75
2022/10/14 08:16:22;;;;;;;35.60;19.50;;;;;;;12.57;100.00;101680.99;1579104;91;21109;-75
2022/10/14 08:18:51;;;;;;;34.15;17.92;;;;;;;12.58;100.00;101683.95;1579306;89;21085;-75
2022/10/14 08:21:20;;;;;;;38.30;18.20;;;;;;;12.44;100.00;101678.41;1579200;91;21616;-75
2022/10/14 08:23:48;;;;;;;28.23;16.90;;;;;;;12.61;100.00;101679.12;1579231;91;21085;-75
2022/10/14 08:26:26;;;;;;;37.23;18.05;;;;;;;12.46;100.00;101676.62;1579354;89;21177;-75
2022/10/14 08:28:53;;;;;;;40.48;19.17;;;;;;;12.60;100.00;101674.41;1579124;91;21112;-75
2022/10/14 08:31:21;;;;;;;37.15;19.00;;;;;;;12.99;100.00;101679.55;1579203;89;21100;-75
2022/10/14 08:33:50;;;;;;;37.90;18.45;;;;;;;13.17;100.00;101680.64;1578513;89;21097;-75
2022/10/14 08:36:18;;;;;;;29.72;17.92;;;;;;;13.32;100.00;101687.88;1577317;89;21060;-75
2022/10/14 08:38:46;;;;;;;36.20;19.62;;;;;;;13.35;100.00;101685.16;1576976;91;21061;-75
2022/10/14 08:41:31;;;;;;;35.05;18.50;;;;;;;13.30;100.00;101690.97;1577192;91;21121;-75
2022/10/14 08:44:21;;;;;;;35.35;18.02;;;;;;;13.35;100.00;101691.63;1557565;91;21121;-75
2022/10/14 08:47:08;;;;;;;33.08;16.73;;;;;;;13.43;100.00;101696.07;1576048;91;21100;-75
2022/10/14 08:49:49;;;;;;;25.25;13.22;;;;;;;13.52;100.00;101697.46;1576188;89;21108;-75
2022/10/14 08:52:27;;;;;;;19.73;11.90;;;;;;;13.56;100.00;101699.49;1576833;91;21092;-75
2022/10/14 08:55:05;;;;;;;22.32;11.80;;;;;;;13.50;100.00;101708.77;1576798;89;21118;-75
2022/10/14 08:57:38;;;;;;;25.48;12.28;;;;;;;13.73;100.00;101711.81;1577157;89;21181;-75
2022/10/14 09:00:09;;;;;;;23.62;11.73;;;;;;;13.96;100.00;101710.45;1576102;91;21054;-75
2022/10/14 09:02:49;;;;;;;25.12;12.10;;;;;;;13.98;100.00;101715.58;1577441;89;21104;-74
2022/10/14 09:05:22;;;;;;;27.90;12.82;;;;;;;14.04;100.00;101708.87;1577433;89;21556;-75
2022/10/14 09:07:54;;;;;;;34.13;16.35;;;;;;;14.12;100.00;101717.17;1576801;89;22072;-74
2022/10/14 09:10:35;;;;;;;30.20;16.00;;;;;;;14.14;100.00;101717.95;1577468;89;21117;-74
2022/10/14 09:13:13;;;;;;;38.05;15.68;;;;;;;14.31;100.00;101712.55;1577577;91;21137;-75
2022/10/14 09:15:47;;;;;;;34.98;13.43;;;;;;;14.21;100.00;101710.35;1558596;89;21075;-75
2022/10/14 09:18:38;;;;;;;26.35;13.72;;;;;;;14.25;100.00;101711.50;1572920;90;21632;-75
2022/10/14 09:21:33;;;;;;;33.38;14.98;;;;;;;14.07;100.00;101719.12;1575808;91;21056;-74
2022/10/14 09:24:20;;;;;;;31.93;15.85;;;;;;;14.18;100.00;101717.39;1574060;89;21132;-74
2022/10/14 09:26:56;;;;;;;29.95;15.10;;;;;;;14.34;100.00;101707.27;1572365;89;21084;-74
2022/10/14 09:29:30;;;;;;;35.58;15.35;;;;;;;14.53;100.00;101705.58;1553704;90;21055;-74
2022/10/14 09:32:04;;;;;;;35.52;16.60;;;;;;;14.49;100.00;101709.20;1553793;92;21632;-74
2022/10/14 09:34:38;;;;;;;42.45;16.75;;;;;;;14.62;100.00;101707.84;1553671;92;21088;-74
2022/10/14 09:37:22;;;;;;;32.33;16.02;;;;;;;14.73;100.00;101703.48;1553745;92;21144;-75
2022/10/14 09:39:51;;;;;;;28.10;14.65;;;;;;;14.93;100.00;101700.50;1554179;92;21110;-75
2022/10/14 09:42:23;;;;;;;33.38;15.85;;;;;;;15.13;100.00;101699.64;1553910;91;21147;-75
2022/10/14 09:45:06;;;;;;;32.75;16.12;;;;;;;14.94;100.00;101705.63;1553591;91;21118;-75
2022/10/14 09:47:44;;;;;;;30.17;14.25;;;;;;;15.03;100.00;101698.73;1554075;91;21118;-74
2022/10/14 09:50:23;;;;;;;30.68;14.58;;;;;;;15.03;100.00;101700.03;1554062;92;21166;-75
2022/10/14 09:53:01;;;;;;;31.00;14.83;;;;;;;15.15;100.00;101702.55;1567331;89;21111;-75
2022/10/14 09:55:29;;;;;;;38.02;18.02;;;;;;;15.04;100.00;101702.16;1571321;91;21088;-75
2022/10/14 09:58:07;;;;;;;36.15;17.48;;;;;;;15.12;100.00;101705.72;1565234;90;21133;-74
2022/10/14 10:00:37;;;;;;;32.78;16.48;;;;;;;15.03;100.00;101702.62;1564644;89;21091;-75
2022/10/14 10:03:05;;;;;;;35.65;16.97;;;;;;;14.96;100.00;101699.92;1574446;89;21127;-75
2022/10/14 10:05:35;;;;;;;30.08;15.50;;;;;;;15.10;100.00;101700.59;1574426;91;21119;-75
2022/10/14 10:08:18;;;;;;;25.25;12.95;;;;;;;15.10;100.00;101701.89;1574398;91;21651;-75
2022/10/14 10:11:12;;;;;;;23.60;13.30;;;;;;;15.28;100.00;101702.00;1554896;89;21527;-75
2022/10/14 10:13:46;;;;;;;34.25;16.95;;;;;;;15.36;100.00;101693.41;1557017;91;21078;-74
2022/10/14 10:16:33;;;;;;;35.65;18.45;;;;;;;15.44;100.00;101688.72;1563207;90;21641;-75
2022/10/14 10:19:33;;;;;;;24.95;13.65;;;;;;;15.46;100.00;101697.73;1579079;90;21130;-75
2022/10/14 10:22:25;;;;;;;21.52;10.35;;;;;;;15.23;100.00;101689.24;1566846;91;21088;-74
2022/10/14 10:25:04;;;;;;;15.15;8.55;;;;;;;15.21;100.00;101688.01;1571912;90;21589;-74
2022/10/14 10:27:36;;;;;;;15.08;8.03;;;;;;;15.06;100.00;101691.73;1570265;91;21588;-75
2022/10/14 10:30:29;;;;;;;21.77;11.15;;;;;;;15.07;100.00;101694.27;1570630;90;21051;-74
2022/10/14 10:33:17;;;;;;;24.77;13.68;;;;;;;15.05;100.00;101688.77;1573748;90;21128;-74
2022/10/14 10:36:09;;;;;;;9.25;5.67;;;;;;;14.99;100.00;101689.41;1570659;91;21076;-74
2022/10/14 10:38:53;;;;;;;9.48;5.50;;;;;;;14.99;100.00;101691.16;1570654;91;21534;-75
2022/10/14 10:41:53;;;;;;;13.55;6.25;;;;;;;15.19;100.00;101692.88;1578337;89;21152;-75
2022/10/14 10:44:51;;;;;;;9.90;6.37;;;;;;;15.35;100.00;101690.45;1605226;88;21093;-74
2022/10/14 10:47:39;;;;;;;12.18;5.60;;;;;;;15.31;100.00;101689.73;1607548;88;21756;-74
2022/10/14 10:50:56;;;;;;;10.90;6.30;;;;;;;15.27;100.00;101690.79;1602237;88;21141;-75
2022/10/14 10:53:43;;;;;;;11.00;5.00;;;;;;;15.16;100.00;101689.11;1611208;88;21552;-75
2022/10/14 10:56:37;;;;;;;9.68;5.05;;;;;;;14.79;100.00;101683.78;1610300;88;21427;-75
2022/10/14 10:59:24;;;;;;;9.40;3.80;;;;;;;14.65;100.00;101684.83;1616765;88;21106;-75
2022/10/14 11:02:33;;;;;;;11.35;3.35;;;;;;;14.55;100.00;101683.50;1573187;88;21164;-74
2022/10/14 11:05:22;;;;;;;6.97;3.42;;;;;;;14.44;100.00;101682.66;1614417;88;21046;-75
2022/10/14 11:12:06;;;;;;;6.78;2.95;;;;;;;14.26;100.00;101684.25;1606323;88;21117;-75
2022/10/14 11:14:45;;;;;;;5.10;2.50;;;;;;;14.23;95.68;101683.94;1611468;88;21089;-75
2022/10/14 11:17:18;;;;;;;4.65;2.52;;;;;;;14.14;100.00;101687.34;1615076;88;21098;-75
2022/10/14 11:20:22;;;;;;;11.15;4.65;;;;;;;14.15;100.00;101678.23;1608551;88;21574;-74
2022/10/14 11:23:35;;;;;;;23.40;9.18;;;;;;;14.11;97.44;101675.37;1611307;88;21591;-75
2022/10/14 11:26:19;;;;;;;6.67;3.00;;;;;;;14.06;97.92;101678.58;1613830;88;21061;-74
2022/10/14 11:29:20;;;;;;;5.08;2.65;;;;;;;14.03;100.00;101676.97;1604976;88;21062;-75
2022/10/14 11:31:58;;;;;;;5.95;2.55;;;;;;;13.97;100.00;101673.75;1611489;88;21157;-75
2022/10/14 11:35:25;;;;;;;3.35;2.20;;;;;;;13.86;100.00;101667.72;1619504;88;21073;-75
2022/10/14 11:38:03;;;;;;;4.08;2.30;;;;;;;13.79;100.00;101677.47;1616457;88;21093;-75
2022/10/14 11:41:12;;;;;;;4.75;2.20;;;;;;;13.75;100.00;101674.61;1616247;88;21077;-75
2022/10/14 11:44:12;;;;;;;5.12;2.20;;;;;;;13.76;100.00;101671.56;1618437;88;21140;-75